หน้าหลัก
METAR-TAF:

METAR-TAF

ท่าอากาศยาน :

Dire Dawa, เอธิโอเปีย

ละติจูด: 09-36N, ลองจิจูด: 041-52E, ความสูง: 1146 ม.

METAR: หายไป

เวลา: 09:56 (06:56 UTC)

การพยากรณ์

รายงานได้ทำขึ้นเมื่อ 3 ชั่วโมงและ 26 นาทีที่แล้ว ณ เวลา 03:30 UTC
การพยากรณ์มีผลตั้งแต่วันที่ 24 ณ เวลา 04 UTC จนถึงวันที่ 25 ณ เวลา 10 UTC
ลม 6 นอตจากทิศทางซึ่งแปรผันได้
ทัศนวิสัย 10 กม. หรือมากกว่า
มีเมฆเป็นส่วนมากเว้นเป็นระยะที่ความสูง 2500 ฟุต
มีเมฆเป็นส่วนมากเว้นเป็นระยะที่ความสูง 6500 ฟุต
ฝนตกเล็กน้อย
กำลังกลายเป็น
ตั้งแต่วันที่ 24 ณ เวลา 12 UTC จนถึงวันที่ 24 ณ เวลา 15 UTC
ลม 4 นอตจากตะวันตกเฉียงเหนือ
ทัศนวิสัย: 8000 ม.
มีเมฆเป็นส่วนมากเว้นเป็นระยะที่ความสูง 1800 ฟุต
มีเมฆเป็นส่วนมากเว้นเป็นระยะที่ความสูง 6500 ฟุต
พายุฝนฟ้าคะนอง, ฝนตกเล็กน้อย,

TAF: HADR 240330Z 2404/2510 VRB06KT 9999 -RA BKN025 BKN065 BECMG 2412/2415 310004KT 8000 -TSRA BKN018 BKN065

สังเกตการณ์สภาพอากาศและพยากรณ์อากาศของสนามบินมากกว่า 4000 แห่ง (รายงาน METAR และ TAF).

สถานีที่ดูได้จะแสดงไว้ด้วยจุดสีเหลืองและสีแดงบนแผนที่.

เลื่อนเมาส์ไปเหนือจุดเพื่อดูชื่อสถานี.

แล้วคลิกเพื่อดูสังเกตการณ์และการพยากรณ์สภาพอากาศ.

ในการเปลี่ยนแผนที่: คลิกที่ปุ่มสีเขียวที่มีกากบาทสีดำเพื่อซูมเข้า; ที่ปุ่มสีเขียวที่มีขีดเพื่อซูมออก; หรือที่ลูกศรสีเขียวเพื่อไปยังแผนที่ที่อยู่ติดกัน.


METAR-TAF: